sensor_id;sensor_type;location;lat;lon;timestamp;P1;durP1;ratioP1;P2;durP2;ratioP2
64875;SDS011;51369;49.862;9.908;2022-08-25T00:01:01;10.05;;;7.70;;
64875;SDS011;51369;49.862;9.908;2022-08-25T00:03:32;8.68;;;7.10;;
64875;SDS011;51369;49.862;9.908;2022-08-25T00:05:58;8.50;;;5.78;;
64875;SDS011;51369;49.862;9.908;2022-08-25T00:08:24;8.15;;;5.93;;
64875;SDS011;51369;49.862;9.908;2022-08-25T00:10:49;6.90;;;5.78;;
64875;SDS011;51369;49.862;9.908;2022-08-25T00:13:15;9.65;;;5.70;;
64875;SDS011;51369;49.862;9.908;2022-08-25T00:15:40;6.70;;;6.03;;
64875;SDS011;51369;49.862;9.908;2022-08-25T00:18:06;9.60;;;6.82;;
64875;SDS011;51369;49.862;9.908;2022-08-25T00:20:31;10.15;;;7.55;;
64875;SDS011;51369;49.862;9.908;2022-08-25T00:22:57;9.70;;;6.93;;
64875;SDS011;51369;49.862;9.908;2022-08-25T00:25:22;9.13;;;7.65;;
64875;SDS011;51369;49.862;9.908;2022-08-25T00:27:49;9.00;;;6.90;;
64875;SDS011;51369;49.862;9.908;2022-08-25T00:30:15;10.27;;;7.60;;
64875;SDS011;51369;49.862;9.908;2022-08-25T00:32:41;10.60;;;6.70;;
64875;SDS011;51369;49.862;9.908;2022-08-25T00:35:07;9.25;;;7.18;;
64875;SDS011;51369;49.862;9.908;2022-08-25T00:37:33;9.60;;;7.10;;
64875;SDS011;51369;49.862;9.908;2022-08-25T00:39:58;11.75;;;7.80;;
64875;SDS011;51369;49.862;9.908;2022-08-25T00:42:24;9.10;;;6.82;;
64875;SDS011;51369;49.862;9.908;2022-08-25T00:44:50;9.65;;;7.57;;
64875;SDS011;51369;49.862;9.908;2022-08-25T00:47:16;15.23;;;7.55;;
64875;SDS011;51369;49.862;9.908;2022-08-25T00:49:44;12.20;;;8.18;;
64875;SDS011;51369;49.862;9.908;2022-08-25T00:52:15;9.15;;;7.88;;
64875;SDS011;51369;49.862;9.908;2022-08-25T00:54:50;8.80;;;7.72;;
64875;SDS011;51369;49.862;9.908;2022-08-25T00:57:22;12.07;;;7.88;;
64875;SDS011;51369;49.862;9.908;2022-08-25T01:02:18;12.10;;;7.90;;
64875;SDS011;51369;49.862;9.908;2022-08-25T01:04:43;13.98;;;8.38;;
64875;SDS011;51369;49.862;9.908;2022-08-25T01:07:10;10.15;;;7.47;;
64875;SDS011;51369;49.862;9.908;2022-08-25T01:09:37;8.07;;;7.25;;
64875;SDS011;51369;49.862;9.908;2022-08-25T01:12:03;12.02;;;7.57;;
64875;SDS011;51369;49.862;9.908;2022-08-25T01:14:29;10.77;;;8.30;;
64875;SDS011;51369;49.862;9.908;2022-08-25T01:16:56;9.82;;;7.85;;
64875;SDS011;51369;49.862;9.908;2022-08-25T01:19:23;9.57;;;7.60;;
64875;SDS011;51369;49.862;9.908;2022-08-25T01:21:51;11.60;;;8.07;;
64875;SDS011;51369;49.862;9.908;2022-08-25T01:24:34;10.75;;;8.30;;
64875;SDS011;51369;49.862;9.908;2022-08-25T01:27:01;16.75;;;8.85;;
64875;SDS011;51369;49.862;9.908;2022-08-25T01:29:27;10.70;;;8.00;;
64875;SDS011;51369;49.862;9.908;2022-08-25T01:31:58;11.60;;;9.07;;
64875;SDS011;51369;49.862;9.908;2022-08-25T01:34:28;10.85;;;8.95;;
64875;SDS011;51369;49.862;9.908;2022-08-25T01:36:56;14.95;;;9.35;;
64875;SDS011;51369;49.862;9.908;2022-08-25T01:39:23;11.70;;;9.52;;
64875;SDS011;51369;49.862;9.908;2022-08-25T01:44:35;12.40;;;8.80;;
64875;SDS011;51369;49.862;9.908;2022-08-25T01:47:02;14.07;;;9.95;;
64875;SDS011;51369;49.862;9.908;2022-08-25T01:49:29;13.65;;;9.07;;
64875;SDS011;51369;49.862;9.908;2022-08-25T01:51:56;16.42;;;9.98;;
64875;SDS011;51369;49.862;9.908;2022-08-25T01:54:25;11.02;;;9.82;;
64875;SDS011;51369;49.862;9.908;2022-08-25T01:56:50;17.98;;;10.73;;
64875;SDS011;51369;49.862;9.908;2022-08-25T01:59:17;15.88;;;9.50;;
64875;SDS011;51369;49.862;9.908;2022-08-25T02:01:45;12.77;;;9.93;;
64875;SDS011;51369;49.862;9.908;2022-08-25T02:04:11;12.68;;;10.13;;
64875;SDS011;51369;49.862;9.908;2022-08-25T02:06:37;13.77;;;9.95;;
64875;SDS011;51369;49.862;9.908;2022-08-25T02:09:04;13.38;;;10.57;;
64875;SDS011;51369;49.862;9.908;2022-08-25T02:11:39;14.25;;;10.75;;
64875;SDS011;51369;49.862;9.908;2022-08-25T02:14:07;15.73;;;10.55;;
64875;SDS011;51369;49.862;9.908;2022-08-25T02:16:35;14.30;;;10.18;;
64875;SDS011;51369;49.862;9.908;2022-08-25T02:19:06;13.73;;;10.65;;
64875;SDS011;51369;49.862;9.908;2022-08-25T02:21:34;14.02;;;9.68;;
64875;SDS011;51369;49.862;9.908;2022-08-25T02:24:00;11.43;;;9.95;;
64875;SDS011;51369;49.862;9.908;2022-08-25T02:26:26;11.98;;;10.10;;
64875;SDS011;51369;49.862;9.908;2022-08-25T02:28:52;11.93;;;8.55;;
64875;SDS011;51369;49.862;9.908;2022-08-25T02:31:19;13.30;;;9.63;;
64875;SDS011;51369;49.862;9.908;2022-08-25T02:33:46;11.77;;;9.65;;
64875;SDS011;51369;49.862;9.908;2022-08-25T02:36:11;11.60;;;10.07;;
64875;SDS011;51369;49.862;9.908;2022-08-25T02:38:37;15.18;;;10.18;;
64875;SDS011;51369;49.862;9.908;2022-08-25T02:41:13;12.32;;;10.32;;
64875;SDS011;51369;49.862;9.908;2022-08-25T02:43:42;12.35;;;9.82;;
64875;SDS011;51369;49.862;9.908;2022-08-25T02:46:08;10.43;;;8.88;;
64875;SDS011;51369;49.862;9.908;2022-08-25T02:48:35;13.38;;;9.63;;
64875;SDS011;51369;49.862;9.908;2022-08-25T02:51:01;11.15;;;9.60;;
64875;SDS011;51369;49.862;9.908;2022-08-25T02:53:28;10.75;;;9.30;;
64875;SDS011;51369;49.862;9.908;2022-08-25T02:55:54;11.43;;;9.73;;
64875;SDS011;51369;49.862;9.908;2022-08-25T02:58:20;11.55;;;9.75;;
64875;SDS011;51369;49.862;9.908;2022-08-25T03:00:46;16.65;;;10.55;;
64875;SDS011;51369;49.862;9.908;2022-08-25T03:03:12;14.68;;;9.98;;
64875;SDS011;51369;49.862;9.908;2022-08-25T03:05:41;13.77;;;9.23;;
64875;SDS011;51369;49.862;9.908;2022-08-25T03:08:07;14.45;;;10.23;;
64875;SDS011;51369;49.862;9.908;2022-08-25T03:10:33;16.73;;;10.45;;
64875;SDS011;51369;49.862;9.908;2022-08-25T03:12:59;15.35;;;10.65;;
64875;SDS011;51369;49.862;9.908;2022-08-25T03:15:25;14.07;;;10.18;;
64875;SDS011;51369;49.862;9.908;2022-08-25T03:17:52;14.35;;;10.27;;
64875;SDS011;51369;49.862;9.908;2022-08-25T03:20:20;13.75;;;9.98;;
64875;SDS011;51369;49.862;9.908;2022-08-25T03:22:46;14.55;;;10.18;;
64875;SDS011;51369;49.862;9.908;2022-08-25T03:25:13;13.15;;;9.45;;
64875;SDS011;51369;49.862;9.908;2022-08-25T03:27:57;14.25;;;10.30;;
64875;SDS011;51369;49.862;9.908;2022-08-25T03:30:22;13.20;;;10.68;;
64875;SDS011;51369;49.862;9.908;2022-08-25T03:32:48;13.10;;;10.07;;
64875;SDS011;51369;49.862;9.908;2022-08-25T03:35:15;12.82;;;10.75;;
64875;SDS011;51369;49.862;9.908;2022-08-25T03:37:41;15.05;;;9.98;;
64875;SDS011;51369;49.862;9.908;2022-08-25T03:40:08;14.82;;;11.10;;
64875;SDS011;51369;49.862;9.908;2022-08-25T03:42:35;13.80;;;10.57;;
64875;SDS011;51369;49.862;9.908;2022-08-25T03:45:04;14.27;;;10.80;;
64875;SDS011;51369;49.862;9.908;2022-08-25T03:47:30;13.85;;;10.32;;
64875;SDS011;51369;49.862;9.908;2022-08-25T03:49:55;14.75;;;10.43;;
64875;SDS011;51369;49.862;9.908;2022-08-25T03:52:21;13.48;;;10.57;;
64875;SDS011;51369;49.862;9.908;2022-08-25T03:54:47;12.35;;;10.35;;
64875;SDS011;51369;49.862;9.908;2022-08-25T03:57:13;15.82;;;11.40;;
64875;SDS011;51369;49.862;9.908;2022-08-25T03:59:38;14.77;;;11.80;;
64875;SDS011;51369;49.862;9.908;2022-08-25T04:02:04;15.30;;;12.30;;
64875;SDS011;51369;49.862;9.908;2022-08-25T04:04:31;14.80;;;11.20;;
64875;SDS011;51369;49.862;9.908;2022-08-25T04:06:57;15.45;;;11.85;;
64875;SDS011;51369;49.862;9.908;2022-08-25T04:09:23;15.07;;;11.75;;
64875;SDS011;51369;49.862;9.908;2022-08-25T04:11:49;15.80;;;12.45;;
64875;SDS011;51369;49.862;9.908;2022-08-25T04:14:15;16.13;;;12.30;;
64875;SDS011;51369;49.862;9.908;2022-08-25T04:16:40;18.00;;;11.85;;
64875;SDS011;51369;49.862;9.908;2022-08-25T04:19:06;12.90;;;11.60;;
64875;SDS011;51369;49.862;9.908;2022-08-25T04:21:34;17.77;;;12.85;;
64875;SDS011;51369;49.862;9.908;2022-08-25T04:24:00;20.02;;;12.68;;
64875;SDS011;51369;49.862;9.908;2022-08-25T04:26:28;16.35;;;11.98;;
64875;SDS011;51369;49.862;9.908;2022-08-25T04:28:56;16.13;;;12.30;;
64875;SDS011;51369;49.862;9.908;2022-08-25T04:31:23;18.70;;;12.48;;
64875;SDS011;51369;49.862;9.908;2022-08-25T04:33:49;14.73;;;12.45;;
64875;SDS011;51369;49.862;9.908;2022-08-25T04:36:16;17.15;;;12.57;;
64875;SDS011;51369;49.862;9.908;2022-08-25T04:38:43;17.33;;;12.88;;
64875;SDS011;51369;49.862;9.908;2022-08-25T04:41:10;15.07;;;11.60;;
64875;SDS011;51369;49.862;9.908;2022-08-25T04:43:38;15.35;;;11.82;;
64875;SDS011;51369;49.862;9.908;2022-08-25T04:46:06;13.45;;;11.35;;
64875;SDS011;51369;49.862;9.908;2022-08-25T04:48:35;15.60;;;12.00;;
64875;SDS011;51369;49.862;9.908;2022-08-25T04:51:08;15.90;;;12.25;;
64875;SDS011;51369;49.862;9.908;2022-08-25T04:53:35;15.10;;;12.20;;
64875;SDS011;51369;49.862;9.908;2022-08-25T04:56:04;14.48;;;12.60;;
64875;SDS011;51369;49.862;9.908;2022-08-25T04:58:31;18.30;;;12.73;;
64875;SDS011;51369;49.862;9.908;2022-08-25T05:01:01;15.63;;;12.45;;
64875;SDS011;51369;49.862;9.908;2022-08-25T05:03:34;19.08;;;12.88;;
64875;SDS011;51369;49.862;9.908;2022-08-25T05:06:00;16.00;;;12.52;;
64875;SDS011;51369;49.862;9.908;2022-08-25T05:08:26;19.35;;;11.27;;
64875;SDS011;51369;49.862;9.908;2022-08-25T05:10:51;16.92;;;12.38;;
64875;SDS011;51369;49.862;9.908;2022-08-25T05:13:20;15.55;;;12.10;;
64875;SDS011;51369;49.862;9.908;2022-08-25T05:15:50;14.90;;;11.95;;
64875;SDS011;51369;49.862;9.908;2022-08-25T05:18:21;18.40;;;11.90;;
64875;SDS011;51369;49.862;9.908;2022-08-25T05:20:48;14.52;;;12.15;;
64875;SDS011;51369;49.862;9.908;2022-08-25T05:23:14;17.02;;;12.10;;
64875;SDS011;51369;49.862;9.908;2022-08-25T05:25:40;17.85;;;13.15;;
64875;SDS011;51369;49.862;9.908;2022-08-25T05:28:07;16.10;;;13.07;;
64875;SDS011;51369;49.862;9.908;2022-08-25T05:30:33;20.23;;;13.80;;
64875;SDS011;51369;49.862;9.908;2022-08-25T05:33:00;18.75;;;13.50;;
64875;SDS011;51369;49.862;9.908;2022-08-25T05:35:27;20.90;;;13.93;;
64875;SDS011;51369;49.862;9.908;2022-08-25T05:37:52;16.15;;;12.98;;
64875;SDS011;51369;49.862;9.908;2022-08-25T05:40:18;23.88;;;13.68;;
64875;SDS011;51369;49.862;9.908;2022-08-25T05:42:43;18.40;;;13.60;;
64875;SDS011;51369;49.862;9.908;2022-08-25T05:45:09;23.10;;;14.20;;
64875;SDS011;51369;49.862;9.908;2022-08-25T05:47:35;18.27;;;13.23;;
64875;SDS011;51369;49.862;9.908;2022-08-25T05:50:01;18.95;;;12.82;;
64875;SDS011;51369;49.862;9.908;2022-08-25T05:52:26;17.50;;;13.23;;
64875;SDS011;51369;49.862;9.908;2022-08-25T05:54:52;17.33;;;13.05;;
64875;SDS011;51369;49.862;9.908;2022-08-25T05:57:19;17.23;;;13.27;;
64875;SDS011;51369;49.862;9.908;2022-08-25T05:59:44;20.45;;;13.18;;
64875;SDS011;51369;49.862;9.908;2022-08-25T06:02:10;23.58;;;13.52;;
64875;SDS011;51369;49.862;9.908;2022-08-25T06:04:54;16.15;;;13.10;;
64875;SDS011;51369;49.862;9.908;2022-08-25T06:07:19;18.88;;;13.45;;
64875;SDS011;51369;49.862;9.908;2022-08-25T06:09:45;17.70;;;14.00;;
64875;SDS011;51369;49.862;9.908;2022-08-25T06:12:13;17.25;;;12.10;;
64875;SDS011;51369;49.862;9.908;2022-08-25T06:14:39;18.83;;;14.55;;
64875;SDS011;51369;49.862;9.908;2022-08-25T06:17:05;17.52;;;13.38;;
64875;SDS011;51369;49.862;9.908;2022-08-25T06:19:31;20.65;;;13.10;;
64875;SDS011;51369;49.862;9.908;2022-08-25T06:21:57;19.42;;;14.65;;
64875;SDS011;51369;49.862;9.908;2022-08-25T06:24:23;16.73;;;13.00;;
64875;SDS011;51369;49.862;9.908;2022-08-25T06:26:50;18.50;;;13.35;;
64875;SDS011;51369;49.862;9.908;2022-08-25T06:29:15;15.70;;;13.45;;
64875;SDS011;51369;49.862;9.908;2022-08-25T06:31:42;18.23;;;13.80;;
64875;SDS011;51369;49.862;9.908;2022-08-25T06:34:08;20.25;;;14.50;;
64875;SDS011;51369;49.862;9.908;2022-08-25T06:36:35;15.90;;;13.82;;
64875;SDS011;51369;49.862;9.908;2022-08-25T06:39:00;19.02;;;14.02;;
64875;SDS011;51369;49.862;9.908;2022-08-25T06:41:26;19.27;;;13.27;;
64875;SDS011;51369;49.862;9.908;2022-08-25T06:43:51;18.92;;;13.77;;
64875;SDS011;51369;49.862;9.908;2022-08-25T06:46:18;20.48;;;14.82;;
64875;SDS011;51369;49.862;9.908;2022-08-25T10:11:45;11.15;;;7.90;;
64875;SDS011;51369;49.862;9.908;2022-08-25T10:16:42;9.27;;;8.30;;
64875;SDS011;51369;49.862;9.908;2022-08-25T10:21:37;10.63;;;6.68;;
64875;SDS011;51369;49.862;9.908;2022-08-25T10:24:05;8.88;;;6.85;;
64875;SDS011;51369;49.862;9.908;2022-08-25T10:37:10;8.02;;;7.15;;
64875;SDS011;51369;49.862;9.908;2022-08-25T10:39:40;9.85;;;6.68;;
64875;SDS011;51369;49.862;9.908;2022-08-25T10:45:07;14.85;;;8.02;;
64875;SDS011;51369;49.862;9.908;2022-08-25T10:48:34;6.75;;;5.90;;
64875;SDS011;51369;49.862;9.908;2022-08-25T11:04:06;9.52;;;7.72;;
64875;SDS011;51369;49.862;9.908;2022-08-25T11:06:49;11.13;;;7.93;;
64875;SDS011;51369;49.862;9.908;2022-08-25T11:09:27;8.70;;;7.63;;
64875;SDS011;51369;49.862;9.908;2022-08-25T11:12:03;8.63;;;7.30;;
64875;SDS011;51369;49.862;9.908;2022-08-25T11:14:35;10.70;;;7.57;;
64875;SDS011;51369;49.862;9.908;2022-08-25T11:19:43;10.80;;;7.50;;
64875;SDS011;51369;49.862;9.908;2022-08-25T11:27:30;8.32;;;7.32;;
64875;SDS011;51369;49.862;9.908;2022-08-25T11:30:06;7.95;;;7.15;;
64875;SDS011;51369;49.862;9.908;2022-08-25T11:32:37;9.18;;;6.97;;
64875;SDS011;51369;49.862;9.908;2022-08-25T11:35:09;8.37;;;7.10;;
64875;SDS011;51369;49.862;9.908;2022-08-25T11:37:44;12.63;;;7.40;;
64875;SDS011;51369;49.862;9.908;2022-08-25T11:51:10;9.88;;;7.05;;
64875;SDS011;51369;49.862;9.908;2022-08-25T11:54:04;27.35;;;7.57;;
64875;SDS011;51369;49.862;9.908;2022-08-25T11:56:33;11.30;;;7.38;;
64875;SDS011;51369;49.862;9.908;2022-08-25T11:59:02;13.90;;;7.13;;
64875;SDS011;51369;49.862;9.908;2022-08-25T12:09:33;7.82;;;7.03;;
64875;SDS011;51369;49.862;9.908;2022-08-25T12:17:44;8.00;;;6.60;;
64875;SDS011;51369;49.862;9.908;2022-08-25T12:20:09;10.90;;;6.78;;
64875;SDS011;51369;49.862;9.908;2022-08-25T12:25:05;10.23;;;6.90;;
64875;SDS011;51369;49.862;9.908;2022-08-25T12:27:58;10.75;;;7.03;;
64875;SDS011;51369;49.862;9.908;2022-08-25T12:36:06;8.60;;;6.75;;
64875;SDS011;51369;49.862;9.908;2022-08-25T12:41:10;7.47;;;6.35;;
64875;SDS011;51369;49.862;9.908;2022-08-25T12:43:38;6.80;;;6.03;;
64875;SDS011;51369;49.862;9.908;2022-08-25T12:51:54;10.20;;;6.40;;
64875;SDS011;51369;49.862;9.908;2022-08-25T12:57:02;6.70;;;6.10;;
64875;SDS011;51369;49.862;9.908;2022-08-25T12:59:41;9.00;;;6.25;;
64875;SDS011;51369;49.862;9.908;2022-08-25T13:02:18;7.05;;;5.90;;
64875;SDS011;51369;49.862;9.908;2022-08-25T13:07:41;6.55;;;5.63;;
64875;SDS011;51369;49.862;9.908;2022-08-25T13:13:03;6.90;;;6.15;;
64875;SDS011;51369;49.862;9.908;2022-08-25T13:15:57;7.63;;;6.05;;
64875;SDS011;51369;49.862;9.908;2022-08-25T13:18:26;7.78;;;5.80;;
64875;SDS011;51369;49.862;9.908;2022-08-25T13:21:15;17.38;;;6.90;;
64875;SDS011;51369;49.862;9.908;2022-08-25T13:23:53;6.75;;;6.10;;
64875;SDS011;51369;49.862;9.908;2022-08-25T13:26:21;8.68;;;5.47;;
64875;SDS011;51369;49.862;9.908;2022-08-25T13:28:54;11.80;;;6.28;;
64875;SDS011;51369;49.862;9.908;2022-08-25T13:31:23;6.03;;;5.53;;
64875;SDS011;51369;49.862;9.908;2022-08-25T13:33:57;6.90;;;5.45;;
64875;SDS011;51369;49.862;9.908;2022-08-25T13:36:30;9.20;;;5.78;;
64875;SDS011;51369;49.862;9.908;2022-08-25T13:39:22;6.47;;;5.38;;
64875;SDS011;51369;49.862;9.908;2022-08-25T13:41:51;9.52;;;5.75;;
64875;SDS011;51369;49.862;9.908;2022-08-25T13:44:20;9.48;;;5.88;;
64875;SDS011;51369;49.862;9.908;2022-08-25T13:47:03;6.63;;;5.97;;
64875;SDS011;51369;49.862;9.908;2022-08-25T13:49:32;8.18;;;5.72;;
64875;SDS011;51369;49.862;9.908;2022-08-25T13:51:58;14.05;;;6.22;;
64875;SDS011;51369;49.862;9.908;2022-08-25T13:54:28;6.88;;;6.18;;
64875;SDS011;51369;49.862;9.908;2022-08-25T13:59:33;7.90;;;5.93;;
64875;SDS011;51369;49.862;9.908;2022-08-25T14:02:02;7.60;;;5.72;;
64875;SDS011;51369;49.862;9.908;2022-08-25T14:07:08;8.25;;;5.82;;
64875;SDS011;51369;49.862;9.908;2022-08-25T14:12:44;7.55;;;6.40;;
64875;SDS011;51369;49.862;9.908;2022-08-25T14:18:05;7.22;;;6.53;;
64875;SDS011;51369;49.862;9.908;2022-08-25T14:20:35;7.80;;;6.00;;
64875;SDS011;51369;49.862;9.908;2022-08-25T14:25:39;7.10;;;6.40;;
64875;SDS011;51369;49.862;9.908;2022-08-25T14:28:07;9.48;;;7.13;;
64875;SDS011;51369;49.862;9.908;2022-08-25T14:30:38;6.97;;;6.32;;
64875;SDS011;51369;49.862;9.908;2022-08-25T14:33:06;7.65;;;6.72;;
64875;SDS011;51369;49.862;9.908;2022-08-25T14:35:33;6.05;;;5.45;;
64875;SDS011;51369;49.862;9.908;2022-08-25T14:38:07;8.55;;;6.65;;
64875;SDS011;51369;49.862;9.908;2022-08-25T14:40:35;6.20;;;5.57;;
64875;SDS011;51369;49.862;9.908;2022-08-25T14:43:02;7.40;;;5.75;;
64875;SDS011;51369;49.862;9.908;2022-08-25T14:45:28;5.38;;;4.88;;
64875;SDS011;51369;49.862;9.908;2022-08-25T14:47:55;6.38;;;4.88;;
64875;SDS011;51369;49.862;9.908;2022-08-25T14:50:27;6.88;;;5.05;;
64875;SDS011;51369;49.862;9.908;2022-08-25T14:52:52;8.50;;;5.63;;
64875;SDS011;51369;49.862;9.908;2022-08-25T14:55:18;7.32;;;6.63;;
64875;SDS011;51369;49.862;9.908;2022-08-25T14:57:43;7.22;;;6.38;;
64875;SDS011;51369;49.862;9.908;2022-08-25T15:00:09;9.85;;;6.88;;
64875;SDS011;51369;49.862;9.908;2022-08-25T15:02:36;8.63;;;7.72;;
64875;SDS011;51369;49.862;9.908;2022-08-25T15:05:05;7.18;;;6.40;;
64875;SDS011;51369;49.862;9.908;2022-08-25T15:07:33;7.70;;;6.30;;
64875;SDS011;51369;49.862;9.908;2022-08-25T15:10:17;8.02;;;6.97;;
64875;SDS011;51369;49.862;9.908;2022-08-25T15:12:43;10.48;;;6.35;;
64875;SDS011;51369;49.862;9.908;2022-08-25T15:15:08;12.27;;;7.20;;
64875;SDS011;51369;49.862;9.908;2022-08-25T15:17:34;6.93;;;6.22;;
64875;SDS011;51369;49.862;9.908;2022-08-25T15:20:01;9.10;;;6.28;;
64875;SDS011;51369;49.862;9.908;2022-08-25T15:22:27;7.05;;;6.35;;
64875;SDS011;51369;49.862;9.908;2022-08-25T15:24:52;6.90;;;6.28;;
64875;SDS011;51369;49.862;9.908;2022-08-25T15:27:18;13.80;;;6.38;;
64875;SDS011;51369;49.862;9.908;2022-08-25T15:29:44;7.07;;;6.40;;
64875;SDS011;51369;49.862;9.908;2022-08-25T15:32:10;8.60;;;6.90;;
64875;SDS011;51369;49.862;9.908;2022-08-25T15:34:36;10.88;;;6.72;;
64875;SDS011;51369;49.862;9.908;2022-08-25T15:37:07;11.68;;;6.53;;
64875;SDS011;51369;49.862;9.908;2022-08-25T15:39:38;13.38;;;8.23;;
64875;SDS011;51369;49.862;9.908;2022-08-25T15:42:05;7.95;;;6.90;;
64875;SDS011;51369;49.862;9.908;2022-08-25T15:44:30;10.50;;;6.97;;
64875;SDS011;51369;49.862;9.908;2022-08-25T15:46:57;8.95;;;6.57;;
64875;SDS011;51369;49.862;9.908;2022-08-25T15:49:23;6.88;;;6.07;;
64875;SDS011;51369;49.862;9.908;2022-08-25T15:51:53;8.93;;;6.97;;
64875;SDS011;51369;49.862;9.908;2022-08-25T15:54:19;7.20;;;6.25;;
64875;SDS011;51369;49.862;9.908;2022-08-25T15:56:45;9.82;;;6.22;;
64875;SDS011;51369;49.862;9.908;2022-08-25T15:59:11;6.93;;;6.18;;
64875;SDS011;51369;49.862;9.908;2022-08-25T16:01:38;9.52;;;6.93;;
64875;SDS011;51369;49.862;9.908;2022-08-25T16:04:04;6.97;;;5.85;;
64875;SDS011;51369;49.862;9.908;2022-08-25T16:06:30;8.07;;;5.90;;
64875;SDS011;51369;49.862;9.908;2022-08-25T16:08:56;9.55;;;6.15;;
64875;SDS011;51369;49.862;9.908;2022-08-25T16:11:24;8.20;;;6.68;;
64875;SDS011;51369;49.862;9.908;2022-08-25T16:13:52;9.88;;;6.35;;
64875;SDS011;51369;49.862;9.908;2022-08-25T16:16:19;7.10;;;6.22;;
64875;SDS011;51369;49.862;9.908;2022-08-25T16:18:45;7.45;;;6.50;;
64875;SDS011;51369;49.862;9.908;2022-08-25T16:21:12;7.32;;;6.63;;
64875;SDS011;51369;49.862;9.908;2022-08-25T16:23:43;10.10;;;6.78;;
64875;SDS011;51369;49.862;9.908;2022-08-25T16:26:10;10.63;;;7.95;;
64875;SDS011;51369;49.862;9.908;2022-08-25T16:28:37;11.68;;;8.02;;
64875;SDS011;51369;49.862;9.908;2022-08-25T16:31:04;10.35;;;6.70;;
64875;SDS011;51369;49.862;9.908;2022-08-25T16:33:32;10.00;;;7.30;;
64875;SDS011;51369;49.862;9.908;2022-08-25T16:36:05;9.85;;;6.88;;
64875;SDS011;51369;49.862;9.908;2022-08-25T16:38:47;8.45;;;6.30;;
64875;SDS011;51369;49.862;9.908;2022-08-25T16:41:15;12.07;;;8.20;;
64875;SDS011;51369;49.862;9.908;2022-08-25T16:43:43;8.88;;;6.90;;
64875;SDS011;51369;49.862;9.908;2022-08-25T16:46:09;9.18;;;7.32;;
64875;SDS011;51369;49.862;9.908;2022-08-25T16:48:38;9.50;;;7.03;;
64875;SDS011;51369;49.862;9.908;2022-08-25T16:51:05;7.75;;;7.05;;
64875;SDS011;51369;49.862;9.908;2022-08-25T16:53:35;7.60;;;6.90;;
64875;SDS011;51369;49.862;9.908;2022-08-25T16:56:19;7.93;;;7.07;;
64875;SDS011;51369;49.862;9.908;2022-08-25T16:58:55;11.57;;;6.63;;
64875;SDS011;51369;49.862;9.908;2022-08-25T17:01:23;10.23;;;6.70;;
64875;SDS011;51369;49.862;9.908;2022-08-25T17:03:50;7.88;;;7.05;;
64875;SDS011;51369;49.862;9.908;2022-08-25T17:06:18;9.65;;;6.15;;
64875;SDS011;51369;49.862;9.908;2022-08-25T17:08:43;8.95;;;6.40;;
64875;SDS011;51369;49.862;9.908;2022-08-25T17:11:13;11.77;;;7.15;;
64875;SDS011;51369;49.862;9.908;2022-08-25T17:16:08;8.35;;;6.45;;
64875;SDS011;51369;49.862;9.908;2022-08-25T17:18:34;12.10;;;7.97;;
64875;SDS011;51369;49.862;9.908;2022-08-25T17:21:05;11.10;;;7.10;;
64875;SDS011;51369;49.862;9.908;2022-08-25T17:23:37;9.40;;;7.28;;
64875;SDS011;51369;49.862;9.908;2022-08-25T17:26:05;8.27;;;6.75;;
64875;SDS011;51369;49.862;9.908;2022-08-25T17:28:31;10.38;;;6.95;;
64875;SDS011;51369;49.862;9.908;2022-08-25T17:30:57;7.78;;;7.00;;
64875;SDS011;51369;49.862;9.908;2022-08-25T17:33:24;12.50;;;6.63;;
64875;SDS011;51369;49.862;9.908;2022-08-25T17:35:50;9.23;;;7.30;;
64875;SDS011;51369;49.862;9.908;2022-08-25T17:38:18;8.48;;;7.40;;
64875;SDS011;51369;49.862;9.908;2022-08-25T17:40:45;8.63;;;6.95;;
64875;SDS011;51369;49.862;9.908;2022-08-25T17:43:12;7.88;;;7.07;;
64875;SDS011;51369;49.862;9.908;2022-08-25T17:45:38;12.43;;;6.90;;
64875;SDS011;51369;49.862;9.908;2022-08-25T17:48:04;9.18;;;7.80;;
64875;SDS011;51369;49.862;9.908;2022-08-25T17:50:31;9.75;;;7.20;;
64875;SDS011;51369;49.862;9.908;2022-08-25T17:52:58;10.40;;;7.70;;
64875;SDS011;51369;49.862;9.908;2022-08-25T17:55:24;7.78;;;6.78;;
64875;SDS011;51369;49.862;9.908;2022-08-25T17:57:49;9.60;;;6.68;;
64875;SDS011;51369;49.862;9.908;2022-08-25T18:00:16;9.15;;;7.57;;
64875;SDS011;51369;49.862;9.908;2022-08-25T18:02:44;8.73;;;7.07;;
64875;SDS011;51369;49.862;9.908;2022-08-25T18:05:11;11.88;;;8.05;;
64875;SDS011;51369;49.862;9.908;2022-08-25T18:07:38;9.90;;;7.30;;
64875;SDS011;51369;49.862;9.908;2022-08-25T18:10:04;9.43;;;6.60;;
64875;SDS011;51369;49.862;9.908;2022-08-25T18:12:31;14.60;;;6.93;;
64875;SDS011;51369;49.862;9.908;2022-08-25T18:14:58;9.40;;;6.88;;
64875;SDS011;51369;49.862;9.908;2022-08-25T18:17:23;7.72;;;6.95;;
64875;SDS011;51369;49.862;9.908;2022-08-25T18:19:49;9.00;;;7.47;;
64875;SDS011;51369;49.862;9.908;2022-08-25T18:22:14;12.35;;;7.00;;
64875;SDS011;51369;49.862;9.908;2022-08-25T18:24:40;8.38;;;6.90;;
64875;SDS011;51369;49.862;9.908;2022-08-25T18:27:06;7.97;;;7.18;;
64875;SDS011;51369;49.862;9.908;2022-08-25T18:29:32;8.35;;;7.45;;
64875;SDS011;51369;49.862;9.908;2022-08-25T18:31:58;9.43;;;7.13;;
64875;SDS011;51369;49.862;9.908;2022-08-25T18:34:23;9.43;;;6.65;;
64875;SDS011;51369;49.862;9.908;2022-08-25T18:36:49;9.07;;;7.25;;
64875;SDS011;51369;49.862;9.908;2022-08-25T18:39:15;7.95;;;7.15;;
64875;SDS011;51369;49.862;9.908;2022-08-25T18:41:59;7.82;;;7.03;;
64875;SDS011;51369;49.862;9.908;2022-08-25T18:44:26;7.03;;;6.32;;
64875;SDS011;51369;49.862;9.908;2022-08-25T18:46:52;8.35;;;6.97;;
64875;SDS011;51369;49.862;9.908;2022-08-25T18:49:18;7.40;;;6.63;;
64875;SDS011;51369;49.862;9.908;2022-08-25T18:51:45;8.55;;;6.90;;
64875;SDS011;51369;49.862;9.908;2022-08-25T18:54:11;10.10;;;6.60;;
64875;SDS011;51369;49.862;9.908;2022-08-25T18:56:38;8.65;;;7.05;;
64875;SDS011;51369;49.862;9.908;2022-08-25T18:59:04;10.40;;;7.28;;
64875;SDS011;51369;49.862;9.908;2022-08-25T19:01:32;9.00;;;6.38;;
64875;SDS011;51369;49.862;9.908;2022-08-25T19:04:01;7.53;;;6.80;;
64875;SDS011;51369;49.862;9.908;2022-08-25T19:06:27;8.85;;;6.75;;
64875;SDS011;51369;49.862;9.908;2022-08-25T19:08:54;10.38;;;7.47;;
64875;SDS011;51369;49.862;9.908;2022-08-25T19:11:20;13.88;;;7.00;;
64875;SDS011;51369;49.862;9.908;2022-08-25T19:13:46;12.90;;;6.78;;
64875;SDS011;51369;49.862;9.908;2022-08-25T19:16:14;8.18;;;6.78;;
64875;SDS011;51369;49.862;9.908;2022-08-25T19:18:42;9.30;;;6.70;;
64875;SDS011;51369;49.862;9.908;2022-08-25T19:21:08;13.57;;;6.78;;
64875;SDS011;51369;49.862;9.908;2022-08-25T19:23:34;11.70;;;6.93;;
64875;SDS011;51369;49.862;9.908;2022-08-25T19:26:05;8.98;;;6.68;;
64875;SDS011;51369;49.862;9.908;2022-08-25T19:28:32;10.50;;;7.47;;
64875;SDS011;51369;49.862;9.908;2022-08-25T19:30:58;9.02;;;6.68;;
64875;SDS011;51369;49.862;9.908;2022-08-25T19:33:25;11.70;;;7.55;;
64875;SDS011;51369;49.862;9.908;2022-08-25T19:35:50;9.57;;;7.13;;
64875;SDS011;51369;49.862;9.908;2022-08-25T19:38:18;10.90;;;7.95;;
64875;SDS011;51369;49.862;9.908;2022-08-25T19:40:47;10.23;;;7.72;;
64875;SDS011;51369;49.862;9.908;2022-08-25T19:43:14;6.90;;;6.20;;
64875;SDS011;51369;49.862;9.908;2022-08-25T19:45:40;7.55;;;6.65;;
64875;SDS011;51369;49.862;9.908;2022-08-25T19:48:06;11.95;;;6.70;;
64875;SDS011;51369;49.862;9.908;2022-08-25T19:50:32;16.50;;;7.50;;
64875;SDS011;51369;49.862;9.908;2022-08-25T19:52:58;11.43;;;6.97;;
64875;SDS011;51369;49.862;9.908;2022-08-25T19:55:23;8.80;;;7.38;;